sensor_id;sensor_type;location;lat;lon;timestamp;temperature;humidity
5344;DHT22;2694;48.954;8.928;2023-04-03T00:01:01;4.20;99.90
5344;DHT22;2694;48.954;8.928;2023-04-03T00:03:28;4.10;99.90
5344;DHT22;2694;48.954;8.928;2023-04-03T00:05:57;4.20;99.90
5344;DHT22;2694;48.954;8.928;2023-04-03T00:08:24;4.20;99.90
5344;DHT22;2694;48.954;8.928;2023-04-03T00:10:50;4.20;99.90
5344;DHT22;2694;48.954;8.928;2023-04-03T00:13:17;4.10;99.90
5344;DHT22;2694;48.954;8.928;2023-04-03T00:15:44;4.10;99.90
5344;DHT22;2694;48.954;8.928;2023-04-03T00:18:11;4.10;99.90
5344;DHT22;2694;48.954;8.928;2023-04-03T00:20:39;4.10;99.90
5344;DHT22;2694;48.954;8.928;2023-04-03T00:23:07;4.00;99.90
5344;DHT22;2694;48.954;8.928;2023-04-03T00:25:34;4.10;99.90
5344;DHT22;2694;48.954;8.928;2023-04-03T00:28:01;4.10;99.90
5344;DHT22;2694;48.954;8.928;2023-04-03T00:30:28;4.10;99.90
5344;DHT22;2694;48.954;8.928;2023-04-03T00:32:55;4.00;99.90
5344;DHT22;2694;48.954;8.928;2023-04-03T00:35:23;4.00;99.90
5344;DHT22;2694;48.954;8.928;2023-04-03T00:37:51;4.00;99.90
5344;DHT22;2694;48.954;8.928;2023-04-03T00:40:22;4.00;99.90
5344;DHT22;2694;48.954;8.928;2023-04-03T00:42:51;4.00;99.90
5344;DHT22;2694;48.954;8.928;2023-04-03T00:45:32;4.00;99.90
5344;DHT22;2694;48.954;8.928;2023-04-03T00:48:01;3.90;99.90
5344;DHT22;2694;48.954;8.928;2023-04-03T00:50:32;3.90;99.90
5344;DHT22;2694;48.954;8.928;2023-04-03T00:53:01;3.80;99.90
5344;DHT22;2694;48.954;8.928;2023-04-03T00:55:29;3.80;99.90
5344;DHT22;2694;48.954;8.928;2023-04-03T00:57:57;3.90;99.90
5344;DHT22;2694;48.954;8.928;2023-04-03T01:00:24;3.80;99.90
5344;DHT22;2694;48.954;8.928;2023-04-03T01:02:51;3.90;99.90
5344;DHT22;2694;48.954;8.928;2023-04-03T01:05:19;3.90;99.90
5344;DHT22;2694;48.954;8.928;2023-04-03T01:07:47;3.90;99.90
5344;DHT22;2694;48.954;8.928;2023-04-03T01:10:17;3.80;99.90
5344;DHT22;2694;48.954;8.928;2023-04-03T01:12:48;3.80;99.90
5344;DHT22;2694;48.954;8.928;2023-04-03T01:15:16;3.70;99.90
5344;DHT22;2694;48.954;8.928;2023-04-03T01:17:45;3.70;99.90
5344;DHT22;2694;48.954;8.928;2023-04-03T01:23:27;3.60;99.90
5344;DHT22;2694;48.954;8.928;2023-04-03T01:25:57;3.60;99.90
5344;DHT22;2694;48.954;8.928;2023-04-03T01:28:27;3.60;99.90
5344;DHT22;2694;48.954;8.928;2023-04-03T01:31:00;3.60;99.90
5344;DHT22;2694;48.954;8.928;2023-04-03T01:33:30;3.60;99.90
5344;DHT22;2694;48.954;8.928;2023-04-03T01:35:57;3.70;99.90
5344;DHT22;2694;48.954;8.928;2023-04-03T01:38:24;3.60;99.90
5344;DHT22;2694;48.954;8.928;2023-04-03T01:40:51;3.60;99.90
5344;DHT22;2694;48.954;8.928;2023-04-03T01:43:18;3.70;99.90
5344;DHT22;2694;48.954;8.928;2023-04-03T01:45:45;3.50;99.90
5344;DHT22;2694;48.954;8.928;2023-04-03T01:48:15;3.50;99.90
5344;DHT22;2694;48.954;8.928;2023-04-03T01:50:43;3.60;99.90
5344;DHT22;2694;48.954;8.928;2023-04-03T01:53:10;3.50;99.90
5344;DHT22;2694;48.954;8.928;2023-04-03T01:55:37;3.60;99.90
5344;DHT22;2694;48.954;8.928;2023-04-03T01:58:04;3.60;99.90
5344;DHT22;2694;48.954;8.928;2023-04-03T02:00:30;3.70;99.90
5344;DHT22;2694;48.954;8.928;2023-04-03T02:02:57;3.60;99.90
5344;DHT22;2694;48.954;8.928;2023-04-03T02:05:25;3.50;99.90
5344;DHT22;2694;48.954;8.928;2023-04-03T02:07:53;3.50;99.90
5344;DHT22;2694;48.954;8.928;2023-04-03T02:10:20;3.50;99.90
5344;DHT22;2694;48.954;8.928;2023-04-03T02:12:47;3.50;99.90
5344;DHT22;2694;48.954;8.928;2023-04-03T02:15:14;3.50;99.90
5344;DHT22;2694;48.954;8.928;2023-04-03T02:17:41;3.60;99.90
5344;DHT22;2694;48.954;8.928;2023-04-03T02:20:08;3.60;99.90
5344;DHT22;2694;48.954;8.928;2023-04-03T02:22:36;3.60;99.90
5344;DHT22;2694;48.954;8.928;2023-04-03T02:25:05;3.60;99.90
5344;DHT22;2694;48.954;8.928;2023-04-03T02:27:32;3.60;99.90
5344;DHT22;2694;48.954;8.928;2023-04-03T02:29:58;3.60;99.90
5344;DHT22;2694;48.954;8.928;2023-04-03T02:32:25;3.70;99.90
5344;DHT22;2694;48.954;8.928;2023-04-03T02:34:52;3.60;99.90
5344;DHT22;2694;48.954;8.928;2023-04-03T02:37:19;3.70;99.90
5344;DHT22;2694;48.954;8.928;2023-04-03T02:39:46;3.70;99.90
5344;DHT22;2694;48.954;8.928;2023-04-03T02:42:14;3.80;99.90
5344;DHT22;2694;48.954;8.928;2023-04-03T02:44:42;3.70;99.90
5344;DHT22;2694;48.954;8.928;2023-04-03T02:47:08;3.70;99.90
5344;DHT22;2694;48.954;8.928;2023-04-03T02:49:35;3.70;99.90
5344;DHT22;2694;48.954;8.928;2023-04-03T02:52:02;3.70;99.90
5344;DHT22;2694;48.954;8.928;2023-04-03T02:54:29;3.80;99.90
5344;DHT22;2694;48.954;8.928;2023-04-03T02:56:56;3.80;99.90
5344;DHT22;2694;48.954;8.928;2023-04-03T02:59:24;3.80;99.90
5344;DHT22;2694;48.954;8.928;2023-04-03T03:01:51;3.80;99.90
5344;DHT22;2694;48.954;8.928;2023-04-03T03:04:18;3.70;99.90
5344;DHT22;2694;48.954;8.928;2023-04-03T03:06:45;3.80;99.90
5344;DHT22;2694;48.954;8.928;2023-04-03T03:09:13;3.70;99.90
5344;DHT22;2694;48.954;8.928;2023-04-03T03:11:40;3.70;99.90
5344;DHT22;2694;48.954;8.928;2023-04-03T03:14:07;3.70;99.90
5344;DHT22;2694;48.954;8.928;2023-04-03T03:16:35;3.70;99.90
5344;DHT22;2694;48.954;8.928;2023-04-03T03:19:03;3.80;99.90
5344;DHT22;2694;48.954;8.928;2023-04-03T03:21:30;3.80;99.90
5344;DHT22;2694;48.954;8.928;2023-04-03T03:23:57;3.80;99.90
5344;DHT22;2694;48.954;8.928;2023-04-03T03:26:24;3.70;99.90
5344;DHT22;2694;48.954;8.928;2023-04-03T03:28:51;3.80;99.90
5344;DHT22;2694;48.954;8.928;2023-04-03T03:31:18;3.80;99.90
5344;DHT22;2694;48.954;8.928;2023-04-03T03:33:46;3.70;99.90
5344;DHT22;2694;48.954;8.928;2023-04-03T03:36:13;3.60;99.90
5344;DHT22;2694;48.954;8.928;2023-04-03T03:38:40;3.70;99.90
5344;DHT22;2694;48.954;8.928;2023-04-03T03:41:07;3.70;99.90
5344;DHT22;2694;48.954;8.928;2023-04-03T03:43:34;3.70;99.90
5344;DHT22;2694;48.954;8.928;2023-04-03T03:46:00;3.70;99.90
5344;DHT22;2694;48.954;8.928;2023-04-03T03:48:27;3.70;99.90
5344;DHT22;2694;48.954;8.928;2023-04-03T03:50:56;3.70;99.90
5344;DHT22;2694;48.954;8.928;2023-04-03T03:53:23;3.80;99.90
5344;DHT22;2694;48.954;8.928;2023-04-03T03:55:50;3.80;99.90
5344;DHT22;2694;48.954;8.928;2023-04-03T03:58:17;3.90;99.90
5344;DHT22;2694;48.954;8.928;2023-04-03T04:00:44;3.70;99.90
5344;DHT22;2694;48.954;8.928;2023-04-03T04:03:10;3.70;99.90
5344;DHT22;2694;48.954;8.928;2023-04-03T04:05:37;3.70;99.90
5344;DHT22;2694;48.954;8.928;2023-04-03T04:08:06;3.80;99.90
5344;DHT22;2694;48.954;8.928;2023-04-03T04:10:33;3.80;99.90
5344;DHT22;2694;48.954;8.928;2023-04-03T04:12:59;3.80;99.90
5344;DHT22;2694;48.954;8.928;2023-04-03T04:15:26;3.80;99.90
5344;DHT22;2694;48.954;8.928;2023-04-03T04:17:53;3.80;99.90
5344;DHT22;2694;48.954;8.928;2023-04-03T04:20:20;3.80;99.90
5344;DHT22;2694;48.954;8.928;2023-04-03T04:22:47;3.80;99.90
5344;DHT22;2694;48.954;8.928;2023-04-03T04:25:16;3.70;99.90
5344;DHT22;2694;48.954;8.928;2023-04-03T04:27:43;3.70;99.90
5344;DHT22;2694;48.954;8.928;2023-04-03T04:30:10;3.70;99.90
5344;DHT22;2694;48.954;8.928;2023-04-03T04:32:38;3.70;99.90
5344;DHT22;2694;48.954;8.928;2023-04-03T04:35:05;3.70;99.90
5344;DHT22;2694;48.954;8.928;2023-04-03T04:37:32;3.60;99.90
5344;DHT22;2694;48.954;8.928;2023-04-03T04:39:59;3.50;99.90
5344;DHT22;2694;48.954;8.928;2023-04-03T04:42:27;3.50;99.90
5344;DHT22;2694;48.954;8.928;2023-04-03T04:44:54;3.40;99.90
5344;DHT22;2694;48.954;8.928;2023-04-03T04:47:21;3.40;99.90
5344;DHT22;2694;48.954;8.928;2023-04-03T04:49:48;3.50;99.90
5344;DHT22;2694;48.954;8.928;2023-04-03T04:52:15;3.50;99.90
5344;DHT22;2694;48.954;8.928;2023-04-03T04:54:42;3.50;99.90
5344;DHT22;2694;48.954;8.928;2023-04-03T04:57:09;3.40;99.90
5344;DHT22;2694;48.954;8.928;2023-04-03T04:59:38;3.40;99.90
5344;DHT22;2694;48.954;8.928;2023-04-03T05:02:05;3.50;99.90
5344;DHT22;2694;48.954;8.928;2023-04-03T05:04:32;3.50;99.90
5344;DHT22;2694;48.954;8.928;2023-04-03T05:06:59;3.40;99.90
5344;DHT22;2694;48.954;8.928;2023-04-03T05:09:26;3.40;99.90
5344;DHT22;2694;48.954;8.928;2023-04-03T05:11:53;3.30;99.90
5344;DHT22;2694;48.954;8.928;2023-04-03T05:14:21;3.30;99.90
5344;DHT22;2694;48.954;8.928;2023-04-03T05:16:50;3.30;99.90
5344;DHT22;2694;48.954;8.928;2023-04-03T05:19:18;3.30;99.90
5344;DHT22;2694;48.954;8.928;2023-04-03T05:21:45;3.20;99.90
5344;DHT22;2694;48.954;8.928;2023-04-03T05:24:13;3.20;99.90
5344;DHT22;2694;48.954;8.928;2023-04-03T05:26:40;3.30;99.90
5344;DHT22;2694;48.954;8.928;2023-04-03T05:29:07;3.30;99.90
5344;DHT22;2694;48.954;8.928;2023-04-03T05:31:34;3.20;99.90
5344;DHT22;2694;48.954;8.928;2023-04-03T05:34:02;3.20;99.90
5344;DHT22;2694;48.954;8.928;2023-04-03T05:36:29;3.30;99.90
5344;DHT22;2694;48.954;8.928;2023-04-03T05:38:56;3.30;99.90
5344;DHT22;2694;48.954;8.928;2023-04-03T05:41:23;3.40;99.90
5344;DHT22;2694;48.954;8.928;2023-04-03T05:43:51;3.30;99.90
5344;DHT22;2694;48.954;8.928;2023-04-03T05:46:19;3.40;99.90
5344;DHT22;2694;48.954;8.928;2023-04-03T05:48:46;3.40;99.90
5344;DHT22;2694;48.954;8.928;2023-04-03T05:51:17;3.40;99.90
5344;DHT22;2694;48.954;8.928;2023-04-03T05:53:44;3.40;99.90
5344;DHT22;2694;48.954;8.928;2023-04-03T05:56:12;3.50;99.90
5344;DHT22;2694;48.954;8.928;2023-04-03T05:58:39;3.60;99.90
5344;DHT22;2694;48.954;8.928;2023-04-03T06:01:06;3.50;99.90
5344;DHT22;2694;48.954;8.928;2023-04-03T06:03:33;3.50;99.90
5344;DHT22;2694;48.954;8.928;2023-04-03T06:06:03;3.70;99.90
5344;DHT22;2694;48.954;8.928;2023-04-03T06:08:32;3.60;99.90
5344;DHT22;2694;48.954;8.928;2023-04-03T06:11:02;3.50;99.90
5344;DHT22;2694;48.954;8.928;2023-04-03T06:13:29;3.50;99.90
5344;DHT22;2694;48.954;8.928;2023-04-03T06:15:56;3.50;99.90
5344;DHT22;2694;48.954;8.928;2023-04-03T06:18:24;3.60;99.90
5344;DHT22;2694;48.954;8.928;2023-04-03T06:20:50;3.60;99.90
5344;DHT22;2694;48.954;8.928;2023-04-03T06:23:17;3.60;99.90
5344;DHT22;2694;48.954;8.928;2023-04-03T06:25:46;3.50;99.90
5344;DHT22;2694;48.954;8.928;2023-04-03T06:28:13;3.40;99.90
5344;DHT22;2694;48.954;8.928;2023-04-03T06:30:40;3.50;99.90
5344;DHT22;2694;48.954;8.928;2023-04-03T06:33:07;3.50;99.90
5344;DHT22;2694;48.954;8.928;2023-04-03T06:35:34;3.60;99.90
5344;DHT22;2694;48.954;8.928;2023-04-03T06:38:02;3.60;99.90
5344;DHT22;2694;48.954;8.928;2023-04-03T06:40:35;3.80;99.90
5344;DHT22;2694;48.954;8.928;2023-04-03T06:43:03;3.80;99.90
5344;DHT22;2694;48.954;8.928;2023-04-03T06:45:30;3.70;99.90
5344;DHT22;2694;48.954;8.928;2023-04-03T06:47:57;4.00;99.90
5344;DHT22;2694;48.954;8.928;2023-04-03T06:50:24;3.90;99.90
5344;DHT22;2694;48.954;8.928;2023-04-03T06:52:51;3.90;99.90
5344;DHT22;2694;48.954;8.928;2023-04-03T06:55:21;3.90;99.90
5344;DHT22;2694;48.954;8.928;2023-04-03T06:57:48;3.90;99.90
5344;DHT22;2694;48.954;8.928;2023-04-03T07:00:17;3.90;99.90
5344;DHT22;2694;48.954;8.928;2023-04-03T07:02:44;3.90;99.90
5344;DHT22;2694;48.954;8.928;2023-04-03T07:05:12;4.00;99.90
5344;DHT22;2694;48.954;8.928;2023-04-03T07:07:39;3.90;99.90
5344;DHT22;2694;48.954;8.928;2023-04-03T07:10:08;4.00;99.90
5344;DHT22;2694;48.954;8.928;2023-04-03T07:12:35;4.00;99.90
5344;DHT22;2694;48.954;8.928;2023-04-03T07:15:03;4.00;99.90
5344;DHT22;2694;48.954;8.928;2023-04-03T07:17:32;4.00;99.90
5344;DHT22;2694;48.954;8.928;2023-04-03T07:19:59;3.90;99.90
5344;DHT22;2694;48.954;8.928;2023-04-03T07:22:26;4.00;99.90
5344;DHT22;2694;48.954;8.928;2023-04-03T07:24:53;4.20;99.90
5344;DHT22;2694;48.954;8.928;2023-04-03T07:27:19;3.90;99.90
5344;DHT22;2694;48.954;8.928;2023-04-03T07:29:46;4.00;99.90
5344;DHT22;2694;48.954;8.928;2023-04-03T07:32:14;4.00;99.90
5344;DHT22;2694;48.954;8.928;2023-04-03T07:34:43;4.10;99.90
5344;DHT22;2694;48.954;8.928;2023-04-03T07:37:10;4.00;99.90
5344;DHT22;2694;48.954;8.928;2023-04-03T07:39:37;4.30;99.90
5344;DHT22;2694;48.954;8.928;2023-04-03T07:42:04;4.40;99.90
5344;DHT22;2694;48.954;8.928;2023-04-03T07:44:31;4.50;99.90
5344;DHT22;2694;48.954;8.928;2023-04-03T07:46:58;4.60;99.90
5344;DHT22;2694;48.954;8.928;2023-04-03T07:49:25;4.80;99.90
5344;DHT22;2694;48.954;8.928;2023-04-03T07:51:54;4.60;99.90
5344;DHT22;2694;48.954;8.928;2023-04-03T07:54:21;4.60;99.90
5344;DHT22;2694;48.954;8.928;2023-04-03T07:56:48;4.50;99.90
5344;DHT22;2694;48.954;8.928;2023-04-03T07:59:15;4.40;99.90
5344;DHT22;2694;48.954;8.928;2023-04-03T08:01:41;4.50;99.90
5344;DHT22;2694;48.954;8.928;2023-04-03T08:04:09;4.60;99.90
5344;DHT22;2694;48.954;8.928;2023-04-03T08:06:36;4.60;99.90
5344;DHT22;2694;48.954;8.928;2023-04-03T08:09:04;4.60;99.90
5344;DHT22;2694;48.954;8.928;2023-04-03T08:11:31;4.80;99.90
5344;DHT22;2694;48.954;8.928;2023-04-03T08:13:58;4.70;99.90
5344;DHT22;2694;48.954;8.928;2023-04-03T08:16:25;4.70;99.90
5344;DHT22;2694;48.954;8.928;2023-04-03T08:18:53;4.90;99.90
5344;DHT22;2694;48.954;8.928;2023-04-03T08:21:21;4.90;99.90
5344;DHT22;2694;48.954;8.928;2023-04-03T08:23:49;5.00;99.90
5344;DHT22;2694;48.954;8.928;2023-04-03T08:26:19;4.90;99.90
5344;DHT22;2694;48.954;8.928;2023-04-03T08:28:47;4.90;99.90
5344;DHT22;2694;48.954;8.928;2023-04-03T08:31:17;5.00;99.90
5344;DHT22;2694;48.954;8.928;2023-04-03T08:33:45;5.10;99.90
5344;DHT22;2694;48.954;8.928;2023-04-03T08:36:18;5.20;99.90
5344;DHT22;2694;48.954;8.928;2023-04-03T08:38:46;5.40;99.90
5344;DHT22;2694;48.954;8.928;2023-04-03T08:41:15;5.60;99.90
5344;DHT22;2694;48.954;8.928;2023-04-03T08:43:56;5.80;99.90
5344;DHT22;2694;48.954;8.928;2023-04-03T08:46:36;5.80;99.90
5344;DHT22;2694;48.954;8.928;2023-04-03T08:49:09;5.80;99.90
5344;DHT22;2694;48.954;8.928;2023-04-03T08:51:39;5.90;99.90
5344;DHT22;2694;48.954;8.928;2023-04-03T08:54:24;5.80;99.90
5344;DHT22;2694;48.954;8.928;2023-04-03T08:56:52;5.60;99.90
5344;DHT22;2694;48.954;8.928;2023-04-03T08:59:26;5.60;99.90
5344;DHT22;2694;48.954;8.928;2023-04-03T09:01:56;5.80;99.90
5344;DHT22;2694;48.954;8.928;2023-04-03T09:04:25;6.20;99.90
5344;DHT22;2694;48.954;8.928;2023-04-03T09:06:57;6.30;99.90
5344;DHT22;2694;48.954;8.928;2023-04-03T09:09:31;6.30;99.90
5344;DHT22;2694;48.954;8.928;2023-04-03T09:12:04;6.40;99.90
5344;DHT22;2694;48.954;8.928;2023-04-03T09:14:39;6.50;99.90
5344;DHT22;2694;48.954;8.928;2023-04-03T09:17:13;6.60;99.90
5344;DHT22;2694;48.954;8.928;2023-04-03T09:19:48;6.80;99.90
5344;DHT22;2694;48.954;8.928;2023-04-03T09:22:20;6.50;99.90
5344;DHT22;2694;48.954;8.928;2023-04-03T09:24:55;6.40;99.90
5344;DHT22;2694;48.954;8.928;2023-04-03T09:27:23;6.40;99.90
5344;DHT22;2694;48.954;8.928;2023-04-03T09:29:54;6.50;99.90
5344;DHT22;2694;48.954;8.928;2023-04-03T09:32:26;6.60;99.90
5344;DHT22;2694;48.954;8.928;2023-04-03T09:34:55;6.40;99.90
5344;DHT22;2694;48.954;8.928;2023-04-03T09:37:37;6.40;99.90
5344;DHT22;2694;48.954;8.928;2023-04-03T09:40:12;6.70;99.90
5344;DHT22;2694;48.954;8.928;2023-04-03T09:42:54;6.60;99.90
5344;DHT22;2694;48.954;8.928;2023-04-03T09:45:25;6.50;99.90
5344;DHT22;2694;48.954;8.928;2023-04-03T09:48:07;6.40;99.90
5344;DHT22;2694;48.954;8.928;2023-04-03T09:50:35;6.20;99.90
5344;DHT22;2694;48.954;8.928;2023-04-03T09:53:05;6.10;99.90
5344;DHT22;2694;48.954;8.928;2023-04-03T09:55:42;6.20;99.90
5344;DHT22;2694;48.954;8.928;2023-04-03T09:58:24;6.20;99.90
5344;DHT22;2694;48.954;8.928;2023-04-03T10:00:57;6.10;99.90
5344;DHT22;2694;48.954;8.928;2023-04-03T10:03:27;6.20;99.90
5344;DHT22;2694;48.954;8.928;2023-04-03T10:05:55;6.70;99.50
5344;DHT22;2694;48.954;8.928;2023-04-03T10:08:26;6.90;99.00
5344;DHT22;2694;48.954;8.928;2023-04-03T10:11:08;7.00;99.00
5344;DHT22;2694;48.954;8.928;2023-04-03T10:13:35;7.10;98.50
5344;DHT22;2694;48.954;8.928;2023-04-03T10:16:07;7.20;98.10
5344;DHT22;2694;48.954;8.928;2023-04-03T10:18:40;6.90;98.20
5344;DHT22;2694;48.954;8.928;2023-04-03T10:21:13;6.90;98.40
5344;DHT22;2694;48.954;8.928;2023-04-03T10:23:44;6.90;98.50
5344;DHT22;2694;48.954;8.928;2023-04-03T10:26:20;6.90;98.40
5344;DHT22;2694;48.954;8.928;2023-04-03T10:28:56;7.00;98.70
5344;DHT22;2694;48.954;8.928;2023-04-03T10:31:31;6.90;97.80
5344;DHT22;2694;48.954;8.928;2023-04-03T10:34:05;7.10;97.90
5344;DHT22;2694;48.954;8.928;2023-04-03T10:36:40;7.30;98.20
5344;DHT22;2694;48.954;8.928;2023-04-03T10:39:18;7.40;98.40
5344;DHT22;2694;48.954;8.928;2023-04-03T10:41:57;7.50;98.60
5344;DHT22;2694;48.954;8.928;2023-04-03T10:44:35;7.10;97.10
5344;DHT22;2694;48.954;8.928;2023-04-03T10:47:09;7.00;97.40
5344;DHT22;2694;48.954;8.928;2023-04-03T10:49:47;7.00;97.80
5344;DHT22;2694;48.954;8.928;2023-04-03T10:52:22;7.10;97.10
5344;DHT22;2694;48.954;8.928;2023-04-03T10:54:58;7.10;97.20
5344;DHT22;2694;48.954;8.928;2023-04-03T10:57:28;7.30;97.10
5344;DHT22;2694;48.954;8.928;2023-04-03T10:59:59;7.30;95.90
5344;DHT22;2694;48.954;8.928;2023-04-03T11:02:31;7.20;95.80
5344;DHT22;2694;48.954;8.928;2023-04-03T11:05:02;7.20;96.00
5344;DHT22;2694;48.954;8.928;2023-04-03T11:07:34;7.30;95.90
5344;DHT22;2694;48.954;8.928;2023-04-03T11:10:09;7.30;95.20
5344;DHT22;2694;48.954;8.928;2023-04-03T11:12:42;7.30;96.20
5344;DHT22;2694;48.954;8.928;2023-04-03T11:15:12;7.10;96.60
5344;DHT22;2694;48.954;8.928;2023-04-03T11:17:46;7.20;96.30
5344;DHT22;2694;48.954;8.928;2023-04-03T11:20:18;7.20;96.20
5344;DHT22;2694;48.954;8.928;2023-04-03T11:22:50;7.20;95.90
5344;DHT22;2694;48.954;8.928;2023-04-03T11:25:20;7.30;96.00
5344;DHT22;2694;48.954;8.928;2023-04-03T11:27:51;7.30;96.30
5344;DHT22;2694;48.954;8.928;2023-04-03T11:30:22;7.20;96.30
5344;DHT22;2694;48.954;8.928;2023-04-03T11:33:09;7.20;96.30
5344;DHT22;2694;48.954;8.928;2023-04-03T11:35:43;7.30;96.00
5344;DHT22;2694;48.954;8.928;2023-04-03T11:38:17;7.20;95.70
5344;DHT22;2694;48.954;8.928;2023-04-03T11:40:45;7.30;96.30
5344;DHT22;2694;48.954;8.928;2023-04-03T11:43:22;7.40;96.10
5344;DHT22;2694;48.954;8.928;2023-04-03T11:45:54;7.40;96.50
5344;DHT22;2694;48.954;8.928;2023-04-03T11:48:51;7.50;96.30
5344;DHT22;2694;48.954;8.928;2023-04-03T11:51:42;7.20;96.30
5344;DHT22;2694;48.954;8.928;2023-04-03T11:54:45;7.20;96.50
5344;DHT22;2694;48.954;8.928;2023-04-03T11:57:44;7.20;96.30
5344;DHT22;2694;48.954;8.928;2023-04-03T12:00:50;7.20;96.00
5344;DHT22;2694;48.954;8.928;2023-04-03T12:07:00;7.20;96.80
5344;DHT22;2694;48.954;8.928;2023-04-03T12:12:37;7.20;96.90
5344;DHT22;2694;48.954;8.928;2023-04-03T12:15:24;7.30;96.70
5344;DHT22;2694;48.954;8.928;2023-04-03T12:17:51;7.40;95.30
5344;DHT22;2694;48.954;8.928;2023-04-03T12:20:53;7.60;95.30
5344;DHT22;2694;48.954;8.928;2023-04-03T12:23:29;7.70;95.20
5344;DHT22;2694;48.954;8.928;2023-04-03T12:26:04;7.50;94.40
5344;DHT22;2694;48.954;8.928;2023-04-03T12:28:39;7.50;94.30
5344;DHT22;2694;48.954;8.928;2023-04-03T12:31:09;7.30;94.70
5344;DHT22;2694;48.954;8.928;2023-04-03T12:36:41;7.00;94.30
5344;DHT22;2694;48.954;8.928;2023-04-03T12:39:44;6.90;94.50
5344;DHT22;2694;48.954;8.928;2023-04-03T12:42:22;6.90;94.10
5344;DHT22;2694;48.954;8.928;2023-04-03T12:44:56;7.00;94.30
5344;DHT22;2694;48.954;8.928;2023-04-03T12:47:32;7.10;94.50
5344;DHT22;2694;48.954;8.928;2023-04-03T12:50:02;7.10;94.70
5344;DHT22;2694;48.954;8.928;2023-04-03T12:52:36;7.10;94.80
5344;DHT22;2694;48.954;8.928;2023-04-03T12:55:15;7.10;95.50
5344;DHT22;2694;48.954;8.928;2023-04-03T12:57:43;7.10;95.40
5344;DHT22;2694;48.954;8.928;2023-04-03T13:00:38;7.10;94.90
5344;DHT22;2694;48.954;8.928;2023-04-03T13:03:06;7.20;94.60
5344;DHT22;2694;48.954;8.928;2023-04-03T13:05:46;7.50;94.30
5344;DHT22;2694;48.954;8.928;2023-04-03T13:08:13;7.50;93.80
5344;DHT22;2694;48.954;8.928;2023-04-03T13:10:51;7.30;93.80
5344;DHT22;2694;48.954;8.928;2023-04-03T13:13:19;7.30;94.10
5344;DHT22;2694;48.954;8.928;2023-04-03T13:15:47;7.20;93.70
5344;DHT22;2694;48.954;8.928;2023-04-03T13:18:27;7.50;93.00
5344;DHT22;2694;48.954;8.928;2023-04-03T13:21:01;7.60;93.30
5344;DHT22;2694;48.954;8.928;2023-04-03T13:23:30;7.80;92.60
5344;DHT22;2694;48.954;8.928;2023-04-03T13:25:59;7.70;92.10
5344;DHT22;2694;48.954;8.928;2023-04-03T13:28:30;8.90;92.50
5344;DHT22;2694;48.954;8.928;2023-04-03T13:31:03;7.40;92.10
5344;DHT22;2694;48.954;8.928;2023-04-03T13:33:33;7.40;92.60
5344;DHT22;2694;48.954;8.928;2023-04-03T13:36:06;7.40;91.80
5344;DHT22;2694;48.954;8.928;2023-04-03T13:38:35;7.30;91.60
5344;DHT22;2694;48.954;8.928;2023-04-03T13:41:05;7.40;91.70
5344;DHT22;2694;48.954;8.928;2023-04-03T13:43:35;7.50;92.20
5344;DHT22;2694;48.954;8.928;2023-04-03T13:46:05;7.60;92.30
5344;DHT22;2694;48.954;8.928;2023-04-03T13:48:38;7.80;91.70
5344;DHT22;2694;48.954;8.928;2023-04-03T13:51:17;7.70;91.60
5344;DHT22;2694;48.954;8.928;2023-04-03T13:53:46;7.60;91.60
5344;DHT22;2694;48.954;8.928;2023-04-03T13:56:23;7.60;91.60
5344;DHT22;2694;48.954;8.928;2023-04-03T13:59:18;7.70;90.90
5344;DHT22;2694;48.954;8.928;2023-04-03T14:01:49;7.70;91.20
5344;DHT22;2694;48.954;8.928;2023-04-03T14:04:19;7.70;91.60
5344;DHT22;2694;48.954;8.928;2023-04-03T14:06:47;7.70;91.70
5344;DHT22;2694;48.954;8.928;2023-04-03T14:09:15;7.80;91.20
5344;DHT22;2694;48.954;8.928;2023-04-03T14:11:45;7.90;90.70
5344;DHT22;2694;48.954;8.928;2023-04-03T14:14:15;7.70;90.40
5344;DHT22;2694;48.954;8.928;2023-04-03T14:16:45;7.50;90.80
5344;DHT22;2694;48.954;8.928;2023-04-03T14:19:20;7.50;90.70
5344;DHT22;2694;48.954;8.928;2023-04-03T14:21:48;7.60;91.50
5344;DHT22;2694;48.954;8.928;2023-04-03T14:24:16;7.90;91.80
5344;DHT22;2694;48.954;8.928;2023-04-03T14:26:45;7.70;91.40
5344;DHT22;2694;48.954;8.928;2023-04-03T14:29:13;7.60;91.30
5344;DHT22;2694;48.954;8.928;2023-04-03T14:31:41;7.50;91.40
5344;DHT22;2694;48.954;8.928;2023-04-03T14:34:08;7.70;91.00
5344;DHT22;2694;48.954;8.928;2023-04-03T14:36:36;7.70;91.20
5344;DHT22;2694;48.954;8.928;2023-04-03T14:39:04;7.70;90.70
5344;DHT22;2694;48.954;8.928;2023-04-03T14:41:32;7.70;90.30
5344;DHT22;2694;48.954;8.928;2023-04-03T14:44:00;7.60;90.20
5344;DHT22;2694;48.954;8.928;2023-04-03T14:46:30;7.60;90.20
5344;DHT22;2694;48.954;8.928;2023-04-03T14:48:58;7.60;90.30
5344;DHT22;2694;48.954;8.928;2023-04-03T14:51:25;7.50;89.40
5344;DHT22;2694;48.954;8.928;2023-04-03T14:53:52;7.50;89.70
5344;DHT22;2694;48.954;8.928;2023-04-03T14:56:23;7.50;89.60
5344;DHT22;2694;48.954;8.928;2023-04-03T14:58:55;7.50;88.60
5344;DHT22;2694;48.954;8.928;2023-04-03T15:01:24;7.50;87.90
5344;DHT22;2694;48.954;8.928;2023-04-03T15:03:51;7.40;89.50
5344;DHT22;2694;48.954;8.928;2023-04-03T15:06:18;7.50;88.60
5344;DHT22;2694;48.954;8.928;2023-04-03T15:08:46;7.50;89.00
5344;DHT22;2694;48.954;8.928;2023-04-03T15:11:14;7.30;87.90
5344;DHT22;2694;48.954;8.928;2023-04-03T15:13:41;7.20;88.40
5344;DHT22;2694;48.954;8.928;2023-04-03T15:16:14;7.30;89.20
5344;DHT22;2694;48.954;8.928;2023-04-03T15:18:44;7.50;89.60
5344;DHT22;2694;48.954;8.928;2023-04-03T15:21:11;7.60;88.90
5344;DHT22;2694;48.954;8.928;2023-04-03T15:23:38;8.00;89.00
5344;DHT22;2694;48.954;8.928;2023-04-03T15:26:05;8.00;86.40
5344;DHT22;2694;48.954;8.928;2023-04-03T15:28:34;7.60;86.40
5344;DHT22;2694;48.954;8.928;2023-04-03T15:31:02;7.30;86.90
5344;DHT22;2694;48.954;8.928;2023-04-03T15:33:30;7.10;87.40
5344;DHT22;2694;48.954;8.928;2023-04-03T15:35:58;7.00;88.60
5344;DHT22;2694;48.954;8.928;2023-04-03T15:38:26;6.90;89.00
5344;DHT22;2694;48.954;8.928;2023-04-03T15:40:53;7.10;89.50
5344;DHT22;2694;48.954;8.928;2023-04-03T15:43:21;7.20;88.90
5344;DHT22;2694;48.954;8.928;2023-04-03T15:45:49;7.50;87.70
5344;DHT22;2694;48.954;8.928;2023-04-03T15:48:16;7.50;85.60
5344;DHT22;2694;48.954;8.928;2023-04-03T15:50:44;7.50;85.20
5344;DHT22;2694;48.954;8.928;2023-04-03T15:53:12;7.60;85.00
5344;DHT22;2694;48.954;8.928;2023-04-03T15:55:39;7.40;84.40
5344;DHT22;2694;48.954;8.928;2023-04-03T15:58:07;7.30;85.50
5344;DHT22;2694;48.954;8.928;2023-04-03T16:00:35;7.30;85.90
5344;DHT22;2694;48.954;8.928;2023-04-03T16:03:05;7.60;86.00
5344;DHT22;2694;48.954;8.928;2023-04-03T16:05:32;7.70;85.30
5344;DHT22;2694;48.954;8.928;2023-04-03T16:08:00;7.80;83.60
5344;DHT22;2694;48.954;8.928;2023-04-03T16:10:29;7.70;85.30
5344;DHT22;2694;48.954;8.928;2023-04-03T16:12:56;7.80;85.00
5344;DHT22;2694;48.954;8.928;2023-04-03T16:15:24;7.90;85.10
5344;DHT22;2694;48.954;8.928;2023-04-03T16:17:52;7.70;83.20
5344;DHT22;2694;48.954;8.928;2023-04-03T16:20:20;7.50;84.10
5344;DHT22;2694;48.954;8.928;2023-04-03T16:22:47;7.40;85.20
5344;DHT22;2694;48.954;8.928;2023-04-03T16:25:14;7.30;85.20
5344;DHT22;2694;48.954;8.928;2023-04-03T16:27:43;7.20;85.50
5344;DHT22;2694;48.954;8.928;2023-04-03T16:30:10;7.10;85.70
5344;DHT22;2694;48.954;8.928;2023-04-03T16:32:39;7.20;87.10
5344;DHT22;2694;48.954;8.928;2023-04-03T16:35:07;7.20;85.80
5344;DHT22;2694;48.954;8.928;2023-04-03T16:37:36;7.30;85.10
5344;DHT22;2694;48.954;8.928;2023-04-03T16:40:04;7.30;85.40
5344;DHT22;2694;48.954;8.928;2023-04-03T16:42:31;7.30;85.70
5344;DHT22;2694;48.954;8.928;2023-04-03T16:44:59;7.30;86.30
5344;DHT22;2694;48.954;8.928;2023-04-03T16:47:29;7.20;86.50